createdAt,value
2019-06-10T00:01:06.991Z,16.52
2019-06-10T00:03:36.515Z,16.51
2019-06-10T00:06:07.038Z,16.50
2019-06-10T00:08:37.511Z,16.49
2019-06-10T00:11:07.977Z,16.49
2019-06-10T00:13:38.344Z,16.49
2019-06-10T00:16:11.305Z,16.43
2019-06-10T00:18:45.138Z,16.39
2019-06-10T00:21:13.190Z,16.33
2019-06-10T00:23:43.664Z,16.34
2019-06-10T00:26:14.194Z,16.33
2019-06-10T00:28:44.618Z,16.34
2019-06-10T00:31:15.066Z,16.38
2019-06-10T00:33:45.468Z,16.42
2019-06-10T00:36:15.895Z,16.46
2019-06-10T00:38:46.292Z,16.52
2019-06-10T00:41:16.755Z,16.54
2019-06-10T00:43:47.179Z,16.56
2019-06-10T00:46:17.569Z,16.52
2019-06-10T00:48:48.054Z,16.48
2019-06-10T00:51:20.780Z,16.45
2019-06-10T00:53:51.362Z,16.42
2019-06-10T00:56:21.982Z,16.38
2019-06-10T00:58:52.369Z,16.35
2019-06-10T01:01:22.756Z,16.31
2019-06-10T01:03:53.341Z,16.26
2019-06-10T01:06:23.848Z,16.20
2019-06-10T01:08:54.260Z,16.16
2019-06-10T01:11:27.125Z,16.19
2019-06-10T01:13:56.707Z,16.20
2019-06-10T01:16:27.052Z,16.28
2019-06-10T01:18:57.443Z,16.30
2019-06-10T01:21:27.803Z,16.38
2019-06-10T01:23:58.231Z,16.39
2019-06-10T01:26:30.841Z,16.40
2019-06-10T01:29:01.067Z,16.37
2019-06-10T01:31:31.905Z,16.30
2019-06-10T01:34:02.345Z,16.27
2019-06-10T01:36:32.770Z,16.23
2019-06-10T01:39:03.550Z,16.17
2019-06-10T01:41:33.921Z,16.13
2019-06-10T01:44:04.400Z,16.04
2019-06-10T01:46:34.855Z,15.94
2019-06-10T01:49:05.336Z,15.89
2019-06-10T01:51:35.818Z,15.84
2019-06-10T01:54:07.362Z,15.83
2019-06-10T01:56:37.954Z,15.88
2019-06-10T01:59:10.968Z,15.87
2019-06-10T02:01:44.592Z,15.91
2019-06-10T02:04:16.570Z,15.93
2019-06-10T02:06:47.689Z,15.93
2019-06-10T02:09:18.817Z,15.93
2019-06-10T02:11:51.394Z,15.91
2019-06-10T02:14:24.241Z,15.88
2019-06-10T02:16:54.567Z,15.86
2019-06-10T02:19:25.033Z,15.83
2019-06-10T02:21:55.451Z,15.81
2019-06-10T02:24:25.999Z,15.82
2019-06-10T02:26:56.459Z,15.84
2019-06-10T02:29:26.868Z,15.84
2019-06-10T02:31:57.236Z,15.89
2019-06-10T02:34:28.622Z,15.96
2019-06-10T02:36:59.222Z,16.08
2019-06-10T02:39:35.048Z,16.20
2019-06-10T02:42:05.828Z,16.38
2019-06-10T02:44:37.675Z,16.48
2019-06-10T02:47:08.272Z,16.52
2019-06-10T02:49:55.720Z,16.55
2019-06-10T02:52:23.276Z,16.51
2019-06-10T02:54:53.585Z,16.58
2019-06-10T02:57:30.440Z,16.57
2019-06-10T02:59:56.404Z,16.59
2019-06-10T03:02:31.819Z,16.63
2019-06-10T03:04:58.877Z,16.62
2019-06-10T03:07:32.619Z,16.71
2019-06-10T03:10:04.517Z,16.79
2019-06-10T03:12:33.478Z,16.88
2019-06-10T03:15:05.187Z,16.86
2019-06-10T03:17:35.675Z,16.93
2019-06-10T03:20:07.605Z,16.91
2019-06-10T03:22:38.140Z,16.83
2019-06-10T03:25:10.187Z,16.88
2019-06-10T03:27:42.448Z,16.96
2019-06-10T03:30:17.198Z,16.99
2019-06-10T03:32:46.628Z,17.09
2019-06-10T03:35:17.363Z,17.15
2019-06-10T03:37:47.845Z,17.24
2019-06-10T03:40:18.545Z,17.39
2019-06-10T03:42:48.957Z,17.41
2019-06-10T03:45:19.339Z,17.41
2019-06-10T03:47:49.705Z,17.65
2019-06-10T03:50:21.897Z,17.76
2019-06-10T03:52:52.514Z,17.90
2019-06-10T03:55:25.011Z,18.02
2019-06-10T03:57:54.991Z,18.07
2019-06-10T04:00:27.192Z,18.11
2019-06-10T04:02:57.460Z,18.05
2019-06-10T04:05:28.863Z,18.09
2019-06-10T04:08:02.003Z,18.03
2019-06-10T04:10:32.456Z,17.91
2019-06-10T04:13:02.989Z,17.92
2019-06-10T04:15:33.641Z,18.00
2019-06-10T04:18:04.152Z,17.93
2019-06-10T04:20:34.610Z,17.90
2019-06-10T04:23:05.008Z,18.01
2019-06-10T04:25:36.442Z,18.15
2019-06-10T04:28:06.803Z,18.23
2019-06-10T04:30:37.275Z,18.29
2019-06-10T04:33:07.695Z,18.29
2019-06-10T04:35:38.098Z,18.43
2019-06-10T04:38:08.472Z,18.48
2019-06-10T04:40:38.888Z,18.78
2019-06-10T04:43:09.281Z,18.78
2019-06-10T04:45:39.666Z,18.75
2019-06-10T04:48:12.300Z,18.81
2019-06-10T04:50:46.208Z,18.87
2019-06-10T04:53:14.275Z,18.86
2019-06-10T04:55:44.751Z,19.02
2019-06-10T04:58:15.143Z,18.94
2019-06-10T05:00:45.999Z,19.18
2019-06-10T05:03:16.580Z,19.25
2019-06-10T05:05:47.520Z,19.35
2019-06-10T05:08:18.999Z,19.49
2019-06-10T05:10:49.428Z,19.54
2019-06-10T05:13:19.819Z,19.69
2019-06-10T05:15:52.583Z,19.61
2019-06-10T05:18:24.237Z,19.66
2019-06-10T05:20:58.548Z,19.80
2019-06-10T05:23:27.895Z,19.97
2019-06-10T05:25:58.514Z,20.06
2019-06-10T05:28:30.014Z,20.35
2019-06-10T05:31:02.759Z,20.79
2019-06-10T05:33:33.499Z,21.10
2019-06-10T05:36:04.730Z,21.16
2019-06-10T05:38:35.484Z,21.26
2019-06-10T05:41:07.049Z,21.37
2019-06-10T05:43:37.490Z,21.34
2019-06-10T05:46:08.059Z,21.25
2019-06-10T05:48:38.529Z,21.09
2019-06-10T05:51:08.917Z,20.98
2019-06-10T05:53:39.308Z,21.02
2019-06-10T05:56:09.866Z,21.17
2019-06-10T05:58:40.274Z,21.22
2019-06-10T06:01:12.967Z,21.60
2019-06-10T06:03:43.913Z,21.79
2019-06-10T06:06:14.926Z,22.23
2019-06-10T06:08:45.426Z,22.30
2019-06-10T06:11:15.861Z,22.29
2019-06-10T06:13:46.357Z,22.18
2019-06-10T06:16:16.850Z,22.45
2019-06-10T06:18:47.336Z,22.62
2019-06-10T06:21:25.470Z,23.02
2019-06-10T06:23:52.608Z,23.49
2019-06-10T06:26:23.608Z,23.82
2019-06-10T06:28:54.536Z,23.97
2019-06-10T06:31:26.170Z,23.97
2019-06-10T06:33:57.103Z,24.08
2019-06-10T06:36:28.638Z,24.21
2019-06-10T06:38:59.115Z,24.37
2019-06-10T06:41:29.641Z,24.45
2019-06-10T06:44:02.159Z,24.43
2019-06-10T06:46:35.011Z,24.44
2019-06-10T06:49:04.308Z,24.38
2019-06-10T06:51:47.388Z,24.68
2019-06-10T06:54:06.990Z,24.92
2019-06-10T06:56:38.996Z,25.03
2019-06-10T06:59:09.822Z,25.02
2019-06-10T07:01:44.103Z,25.22
2019-06-10T07:04:13.490Z,25.51
2019-06-10T07:06:44.565Z,25.72
2019-06-10T07:09:14.950Z,25.89
2019-06-10T07:11:45.589Z,26.14
2019-06-10T07:14:16.911Z,26.31
2019-06-10T07:16:47.439Z,26.51
2019-06-10T07:19:17.821Z,26.69
2019-06-10T07:22:07.456Z,26.85
2019-06-10T07:24:20.329Z,27.05
2019-06-10T07:26:54.677Z,27.14
2019-06-10T07:29:23.057Z,27.04
2019-06-10T07:31:53.916Z,27.29
2019-06-10T07:34:24.397Z,27.38
2019-06-10T07:36:54.982Z,27.39
2019-06-10T07:39:25.480Z,27.30
2019-06-10T07:41:56.881Z,27.30
2019-06-10T07:44:27.375Z,27.32
2019-06-10T07:46:58.763Z,27.40
2019-06-10T07:49:29.286Z,27.41
2019-06-10T07:52:14.887Z,27.57
2019-06-10T07:54:33.243Z,27.63
2019-06-10T07:57:04.381Z,27.88
2019-06-10T07:59:35.413Z,27.96
2019-06-10T08:02:05.992Z,28.10
2019-06-10T08:04:38.049Z,28.13
2019-06-10T08:07:08.711Z,28.35
2019-06-10T08:09:39.205Z,28.31
2019-06-10T08:12:09.712Z,28.30
2019-06-10T08:14:42.245Z,28.38
2019-06-10T08:17:12.918Z,28.40
2019-06-10T08:19:48.853Z,28.46
2019-06-10T08:22:29.820Z,28.32
2019-06-10T08:24:48.136Z,28.54
2019-06-10T08:27:19.105Z,28.50
2019-06-10T08:29:58.552Z,28.58
2019-06-10T08:32:24.502Z,28.61
2019-06-10T08:34:54.225Z,28.70
2019-06-10T08:37:24.689Z,28.59
2019-06-10T08:39:55.252Z,28.57
2019-06-10T08:42:25.804Z,28.50
2019-06-10T08:44:59.707Z,28.54
2019-06-10T08:47:28.588Z,28.65
2019-06-10T08:49:59.089Z,28.72
2019-06-10T08:52:29.638Z,28.83
2019-06-10T08:55:03.147Z,28.96
2019-06-10T08:57:33.512Z,29.15
2019-06-10T09:00:12.507Z,29.04
2019-06-10T09:02:41.065Z,29.20
2019-06-10T09:05:17.670Z,29.05
2019-06-10T09:07:51.256Z,28.98
2019-06-10T09:10:22.633Z,28.88
2019-06-10T09:12:54.672Z,28.83
2019-06-10T09:15:25.326Z,28.79
2019-06-10T09:17:56.212Z,28.99
2019-06-10T09:20:27.184Z,29.13
2019-06-10T09:23:16.830Z,29.31
2019-06-10T09:25:33.310Z,29.44
2019-06-10T09:28:03.037Z,29.65
2019-06-10T09:30:33.555Z,29.60
2019-06-10T09:33:04.836Z,29.79
2019-06-10T09:35:35.612Z,29.67
2019-06-10T09:38:06.210Z,29.69
2019-06-10T09:40:59.017Z,29.70
2019-06-10T09:43:23.293Z,29.72
2019-06-10T09:45:56.379Z,29.73
2019-06-10T09:48:26.101Z,29.74
2019-06-10T09:50:58.800Z,29.75
2019-06-10T09:53:34.992Z,29.55
2019-06-10T09:56:04.102Z,29.04
2019-06-10T09:58:33.521Z,28.95
2019-06-10T10:01:04.828Z,28.91
2019-06-10T10:03:35.420Z,28.63
2019-06-10T10:06:13.997Z,28.59
2019-06-10T10:08:38.072Z,28.58
2019-06-10T10:11:08.726Z,28.46
2019-06-10T10:13:39.344Z,28.54
2019-06-10T10:16:09.825Z,28.58
2019-06-10T10:18:42.516Z,28.45
2019-06-10T10:21:13.033Z,28.20
2019-06-10T10:23:53.981Z,28.24
2019-06-10T10:26:16.129Z,28.20
2019-06-10T10:28:49.913Z,28.21
2019-06-10T10:31:18.703Z,28.40
2019-06-10T10:33:50.462Z,28.50
2019-06-10T10:36:22.572Z,28.67
2019-06-10T10:38:53.586Z,28.58
2019-06-10T10:41:24.216Z,28.65
2019-06-10T10:43:57.809Z,28.76
2019-06-10T10:46:27.155Z,28.70
2019-06-10T10:48:57.835Z,28.86
2019-06-10T10:51:28.171Z,28.95
2019-06-10T10:54:28.487Z,28.89
2019-06-10T10:56:33.386Z,29.01
2019-06-10T10:59:03.477Z,28.94
2019-06-10T11:01:35.029Z,29.22
2019-06-10T11:04:05.779Z,29.32
2019-06-10T11:06:37.866Z,29.46
2019-06-10T11:09:09.599Z,29.76
2019-06-10T11:11:43.641Z,30.15
2019-06-10T11:14:15.003Z,30.25
2019-06-10T11:16:45.527Z,30.41
2019-06-10T11:19:16.230Z,30.42
2019-06-10T11:21:47.421Z,30.27
2019-06-10T11:24:32.864Z,30.43
2019-06-10T11:26:53.193Z,30.50
2019-06-10T11:29:23.095Z,30.59
2019-06-10T11:31:55.699Z,30.60
2019-06-10T11:34:26.548Z,30.50
2019-06-10T11:36:58.178Z,30.61
2019-06-10T11:39:28.788Z,30.51
2019-06-10T11:41:59.159Z,30.60
2019-06-10T11:44:30.057Z,30.55
2019-06-10T11:47:07.320Z,30.49
2019-06-10T11:49:37.869Z,30.36
2019-06-10T11:52:12.439Z,30.54
2019-06-10T11:54:55.705Z,30.68
2019-06-10T11:57:14.171Z,30.90
2019-06-10T11:59:44.594Z,31.05
2019-06-10T12:02:15.050Z,31.07
2019-06-10T12:04:45.656Z,31.16
2019-06-10T12:07:16.387Z,30.91
2019-06-10T12:09:46.942Z,31.02
2019-06-10T12:12:17.475Z,31.20
2019-06-10T12:14:49.281Z,31.34
2019-06-10T12:17:35.233Z,31.17
2019-06-10T12:19:55.606Z,31.10
2019-06-10T12:22:24.577Z,31.10
2019-06-10T12:25:21.084Z,31.21
2019-06-10T12:27:27.219Z,31.39
2019-06-10T12:30:00.263Z,31.58
2019-06-10T12:32:33.013Z,31.67
2019-06-10T12:35:05.343Z,31.72
2019-06-10T12:37:36.253Z,31.99
2019-06-10T12:40:12.786Z,32.11
2019-06-10T12:42:43.099Z,32.21
2019-06-10T12:45:13.859Z,32.30
2019-06-10T12:47:44.400Z,32.28
2019-06-10T12:50:14.978Z,32.45
2019-06-10T12:52:45.347Z,32.51
2019-06-10T12:55:15.897Z,32.65
2019-06-10T12:57:46.383Z,32.69
2019-06-10T13:00:23.255Z,32.79
2019-06-10T13:02:53.023Z,32.62
2019-06-10T13:05:23.033Z,32.64
2019-06-10T13:07:53.776Z,32.49
2019-06-10T13:10:42.927Z,32.43
2019-06-10T13:13:13.521Z,32.53
2019-06-10T13:15:43.978Z,32.66
2019-06-10T13:18:19.164Z,32.72
2019-06-10T13:20:46.438Z,32.75
2019-06-10T13:23:23.849Z,32.82
2019-06-10T13:25:55.347Z,33.02
2019-06-10T13:28:22.265Z,33.20
2019-06-10T13:30:54.485Z,33.42
2019-06-10T13:33:25.016Z,33.47
2019-06-10T13:35:56.695Z,33.50
2019-06-10T13:38:27.619Z,33.50
2019-06-10T13:40:59.476Z,33.43
2019-06-10T13:43:33.044Z,33.43
2019-06-10T13:46:03.107Z,33.53
2019-06-10T13:48:34.281Z,33.61
2019-06-10T13:51:09.120Z,33.93
2019-06-10T13:53:36.953Z,33.99
2019-06-10T13:56:34.697Z,34.22
2019-06-10T13:58:45.031Z,34.39
2019-06-10T14:01:20.761Z,34.55
2019-06-10T14:03:44.184Z,34.52
2019-06-10T14:06:32.583Z,34.99
2019-06-10T14:08:47.018Z,35.21
2019-06-10T14:11:18.968Z,35.48
2019-06-10T14:13:52.428Z,35.11
2019-06-10T14:16:23.424Z,35.04
2019-06-10T14:18:54.396Z,35.13
2019-06-10T14:21:24.916Z,35.44
2019-06-10T14:23:55.341Z,35.44
2019-06-10T14:26:39.858Z,35.43
2019-06-10T14:28:58.148Z,35.66
2019-06-10T14:31:42.848Z,36.07
2019-06-10T14:34:00.771Z,36.07
2019-06-10T14:36:32.541Z,35.99
2019-06-10T14:39:06.029Z,36.55
2019-06-10T14:41:36.573Z,36.94
2019-06-10T14:44:08.603Z,37.18
2019-06-10T14:46:39.248Z,37.07
2019-06-10T14:49:10.853Z,36.98
2019-06-10T14:51:43.107Z,37.36
2019-06-10T14:54:18.022Z,37.47
2019-06-10T14:56:53.623Z,37.32
2019-06-10T14:59:22.301Z,37.90
2019-06-10T15:01:52.274Z,38.41
2019-06-10T15:04:23.056Z,38.69
2019-06-10T15:06:53.934Z,38.41
2019-06-10T15:09:24.402Z,38.66
2019-06-10T15:11:54.963Z,38.52
2019-06-10T15:14:25.403Z,38.50
2019-06-10T15:16:55.899Z,38.08
2019-06-10T15:19:29.033Z,38.27
2019-06-10T15:21:58.413Z,38.29
2019-06-10T15:24:28.784Z,38.09
2019-06-10T15:27:11.937Z,37.89
2019-06-10T15:29:32.856Z,38.06
2019-06-10T15:32:14.643Z,38.01
2019-06-10T15:34:36.465Z,38.25
2019-06-10T15:37:06.945Z,37.73
2019-06-10T15:39:37.347Z,37.41
2019-06-10T15:42:07.741Z,37.33
2019-06-10T15:44:48.598Z,37.52
2019-06-10T15:47:13.865Z,37.82
2019-06-10T15:49:42.313Z,38.03
2019-06-10T15:52:13.916Z,38.06
2019-06-10T15:54:44.798Z,38.03
2019-06-10T15:57:31.780Z,38.00
2019-06-10T15:59:47.330Z,37.62
2019-06-10T16:02:19.467Z,37.65
2019-06-10T16:04:52.442Z,36.81
2019-06-10T16:07:25.364Z,35.91
2019-06-10T16:09:54.340Z,35.32
2019-06-10T16:12:26.794Z,34.65
2019-06-10T16:14:56.949Z,34.15
2019-06-10T16:17:30.073Z,33.50
2019-06-10T16:19:59.438Z,33.26
2019-06-10T16:22:29.893Z,32.98
2019-06-10T16:25:00.258Z,32.88
2019-06-10T16:27:46.294Z,32.70
2019-06-10T16:30:02.938Z,32.41
2019-06-10T16:32:33.329Z,32.16
2019-06-10T16:35:05.741Z,32.14
2019-06-10T16:37:36.198Z,31.91
2019-06-10T16:40:07.001Z,31.74
2019-06-10T16:42:37.424Z,31.58
2019-06-10T16:45:07.779Z,31.47
2019-06-10T16:47:38.317Z,31.41
2019-06-10T16:50:09.310Z,31.33
2019-06-10T16:52:42.946Z,31.26
2019-06-10T16:55:12.745Z,31.17
2019-06-10T16:57:58.396Z,31.02
2019-06-10T17:00:15.505Z,30.92
2019-06-10T17:02:46.169Z,30.75
2019-06-10T17:05:16.648Z,30.76
2019-06-10T17:07:47.522Z,30.60
2019-06-10T17:10:17.900Z,30.45
2019-06-10T17:12:49.954Z,30.37
2019-06-10T17:15:21.088Z,30.33
2019-06-10T17:17:52.200Z,30.16
2019-06-10T17:20:23.614Z,30.04
2019-06-10T17:22:54.778Z,29.94
2019-06-10T17:25:26.557Z,29.93
2019-06-10T17:27:57.361Z,29.80
2019-06-10T17:30:28.502Z,29.79
2019-06-10T17:32:59.562Z,29.64
2019-06-10T17:35:32.959Z,29.55
2019-06-10T17:38:02.821Z,29.43
2019-06-10T17:40:33.725Z,29.42
2019-06-10T17:43:04.349Z,29.34
2019-06-10T17:45:34.896Z,29.30
2019-06-10T17:48:05.306Z,29.20
2019-06-10T17:50:35.695Z,29.17
2019-06-10T17:53:06.140Z,29.07
2019-06-10T17:55:36.524Z,29.05
2019-06-10T17:58:06.961Z,29.01
2019-06-10T18:00:37.357Z,28.94
2019-06-10T18:03:08.033Z,28.88
2019-06-10T18:05:38.566Z,28.84
2019-06-10T18:08:09.039Z,28.82
2019-06-10T18:10:39.577Z,28.76
2019-06-10T18:13:16.414Z,28.71
2019-06-10T18:15:42.350Z,28.69
2019-06-10T18:18:13.032Z,28.65
2019-06-10T18:20:44.355Z,28.58
2019-06-10T18:23:14.863Z,28.55
2019-06-10T18:25:45.263Z,28.46
2019-06-10T18:28:15.708Z,28.38
2019-06-10T18:30:46.545Z,28.35
2019-06-10T18:33:16.937Z,28.28
2019-06-10T18:35:47.373Z,28.24
2019-06-10T18:38:17.925Z,28.16
2019-06-10T18:40:48.331Z,28.08
2019-06-10T18:43:18.724Z,27.92
2019-06-10T18:45:49.148Z,27.88
2019-06-10T18:48:19.572Z,27.79
2019-06-10T18:50:52.555Z,27.68
2019-06-10T18:53:23.428Z,27.58
2019-06-10T18:55:54.975Z,27.52
2019-06-10T18:58:25.528Z,27.43
2019-06-10T19:01:03.921Z,27.35
2019-06-10T19:03:28.698Z,27.26
2019-06-10T19:05:59.166Z,27.18
2019-06-10T19:08:29.555Z,27.08
2019-06-10T19:11:02.358Z,26.99
2019-06-10T19:13:35.266Z,26.93
2019-06-10T19:16:04.313Z,26.87
2019-06-10T19:18:36.036Z,26.80
2019-06-10T19:21:08.843Z,26.71
2019-06-10T19:23:39.756Z,26.66
2019-06-10T19:26:13.852Z,26.60
2019-06-10T19:29:03.731Z,26.55
2019-06-10T19:31:36.239Z,26.50
2019-06-10T19:34:06.086Z,26.46
2019-06-10T19:36:37.669Z,26.41
2019-06-10T19:39:08.300Z,26.37
2019-06-10T19:41:40.657Z,26.33
2019-06-10T19:44:12.967Z,26.27
2019-06-10T19:46:43.159Z,26.21
2019-06-10T19:49:13.750Z,26.16
2019-06-10T19:51:46.591Z,26.12
2019-06-10T19:54:16.337Z,26.05
2019-06-10T19:56:46.916Z,25.99
2019-06-10T19:59:17.291Z,25.95
2019-06-10T20:01:48.841Z,25.92
2019-06-10T20:04:19.350Z,25.90
2019-06-10T20:06:50.819Z,25.84
2019-06-10T20:09:22.658Z,25.81
2019-06-10T20:11:53.242Z,25.77
2019-06-10T20:14:23.770Z,25.75
2019-06-10T20:16:54.175Z,25.70
2019-06-10T20:19:24.622Z,25.66
2019-06-10T20:21:55.190Z,25.63
2019-06-10T20:24:25.689Z,25.62
2019-06-10T20:26:56.078Z,25.55
2019-06-10T20:29:26.465Z,25.49
2019-06-10T20:31:56.886Z,25.46
2019-06-10T20:34:28.139Z,25.42
2019-06-10T20:36:58.723Z,25.39
2019-06-10T20:39:29.682Z,25.34
2019-06-10T20:42:02.716Z,25.32
2019-06-10T20:44:32.692Z,25.27
2019-06-10T20:47:03.296Z,25.25
2019-06-10T20:49:33.761Z,25.20
2019-06-10T20:52:11.151Z,25.21
2019-06-10T20:54:36.530Z,25.19
2019-06-10T20:57:07.029Z,25.17
2019-06-10T20:59:39.067Z,25.15
2019-06-10T21:02:09.636Z,25.12
2019-06-10T21:04:41.697Z,25.08
2019-06-10T21:07:13.232Z,25.04
2019-06-10T21:09:44.434Z,25.01
2019-06-10T21:12:16.021Z,25.00
2019-06-10T21:14:47.221Z,24.92
2019-06-10T21:17:18.569Z,24.88
2019-06-10T21:19:49.213Z,24.85
2019-06-10T21:22:19.579Z,24.86
2019-06-10T21:24:51.350Z,24.86
2019-06-10T21:27:23.868Z,24.83
2019-06-10T21:29:54.908Z,24.83
2019-06-10T21:32:25.329Z,24.80
2019-06-10T21:34:55.791Z,24.77
2019-06-10T21:37:26.283Z,24.76
2019-06-10T21:39:56.695Z,24.71
2019-06-10T21:42:27.275Z,24.63
2019-06-10T21:44:57.645Z,24.57
2019-06-10T21:47:28.045Z,24.54
2019-06-10T21:49:58.432Z,24.45
2019-06-10T21:52:28.978Z,24.41
2019-06-10T21:54:59.361Z,24.39
2019-06-10T21:57:29.836Z,24.35
2019-06-10T22:00:02.388Z,24.36
2019-06-10T22:02:32.464Z,24.34
2019-06-10T22:05:03.456Z,24.33
2019-06-10T22:07:33.988Z,24.31
2019-06-10T22:10:08.015Z,24.28
2019-06-10T22:12:38.515Z,24.21
2019-06-10T22:15:12.483Z,24.15
2019-06-10T22:17:44.213Z,24.13
2019-06-10T22:20:14.724Z,24.07
2019-06-10T22:22:46.490Z,24.04
2019-06-10T22:25:17.081Z,23.99
2019-06-10T22:27:47.879Z,23.97
2019-06-10T22:30:18.293Z,23.97
2019-06-10T22:32:52.672Z,23.97
2019-06-10T22:35:23.038Z,23.96
2019-06-10T22:37:55.426Z,23.99
2019-06-10T22:40:26.113Z,24.00
2019-06-10T22:42:56.856Z,23.97
2019-06-10T22:45:27.206Z,23.95
2019-06-10T22:47:58.466Z,23.91
2019-06-10T22:50:28.885Z,23.88
2019-06-10T22:52:59.702Z,23.84
2019-06-10T22:55:32.226Z,23.80
2019-06-10T22:58:05.804Z,23.74
2019-06-10T23:00:34.446Z,23.68
2019-06-10T23:03:04.933Z,23.66
2019-06-10T23:05:35.367Z,23.66
2019-06-10T23:08:05.782Z,23.64
2019-06-10T23:10:37.255Z,23.62
2019-06-10T23:13:07.835Z,23.58
2019-06-10T23:15:38.384Z,23.53
2019-06-10T23:18:08.904Z,23.48
2019-06-10T23:20:39.508Z,23.35
2019-06-10T23:23:12.663Z,23.23
2019-06-10T23:25:43.160Z,23.14
2019-06-10T23:28:13.616Z,23.02
2019-06-10T23:30:44.918Z,22.94
2019-06-10T23:33:15.525Z,22.91
2019-06-10T23:35:47.684Z,22.86
2019-06-10T23:38:18.251Z,22.82
2019-06-10T23:40:48.621Z,22.80
2019-06-10T23:43:19.023Z,22.74
2019-06-10T23:45:49.388Z,22.70
2019-06-10T23:48:22.558Z,22.64
2019-06-10T23:50:53.828Z,22.55
2019-06-10T23:53:24.185Z,22.52
2019-06-10T23:55:55.175Z,22.45
2019-06-10T23:58:26.685Z,22.45
